createdAt,value
2022-11-30T00:00:53.775Z,116.68
2022-11-30T00:03:22.027Z,120.22
2022-11-30T00:05:51.735Z,110.55
2022-11-30T00:08:19.944Z,109.10
2022-11-30T00:10:47.991Z,101.30
2022-11-30T00:13:16.003Z,106.80
2022-11-30T00:15:43.944Z,90.32
2022-11-30T00:18:11.964Z,98.07
2022-11-30T00:20:40.145Z,91.68
2022-11-30T00:23:10.105Z,95.00
2022-11-30T00:25:38.502Z,88.38
2022-11-30T00:28:06.507Z,89.18
2022-11-30T00:30:34.673Z,86.63
2022-11-30T00:33:03.128Z,79.15
2022-11-30T00:35:32.088Z,90.18
2022-11-30T00:38:02.768Z,92.25
2022-11-30T00:40:32.157Z,85.53
2022-11-30T00:43:00.184Z,85.28
2022-11-30T00:45:28.189Z,78.10
2022-11-30T00:47:56.161Z,80.47
2022-11-30T00:50:24.218Z,84.72
2022-11-30T00:52:52.202Z,77.03
2022-11-30T00:55:20.297Z,78.45
2022-11-30T00:57:49.685Z,75.00
2022-11-30T01:00:18.548Z,73.10
2022-11-30T01:02:46.687Z,67.63
2022-11-30T01:05:15.474Z,69.90
2022-11-30T01:07:43.605Z,74.55
2022-11-30T01:10:12.125Z,66.00
2022-11-30T01:12:40.193Z,72.63
2022-11-30T01:15:10.637Z,70.60
2022-11-30T01:17:39.149Z,69.03
2022-11-30T01:20:09.071Z,70.13
2022-11-30T01:22:37.259Z,77.10
2022-11-30T01:25:06.171Z,74.50
2022-11-30T01:27:34.168Z,70.93
2022-11-30T01:30:02.199Z,74.20
2022-11-30T01:32:32.196Z,74.82
2022-11-30T01:35:00.301Z,77.15
2022-11-30T01:37:29.834Z,71.85
2022-11-30T01:39:58.011Z,79.00
2022-11-30T01:42:26.044Z,79.00
2022-11-30T01:44:56.900Z,76.32
2022-11-30T01:47:30.685Z,82.68
2022-11-30T01:50:05.545Z,75.78
2022-11-30T01:52:38.427Z,79.45
2022-11-30T01:55:14.782Z,72.95
2022-11-30T01:57:48.067Z,77.35
2022-11-30T02:00:17.947Z,78.05
2022-11-30T02:02:53.890Z,81.85
2022-11-30T02:05:24.380Z,80.28
2022-11-30T02:07:52.771Z,77.45
2022-11-30T02:10:26.928Z,78.50
2022-11-30T02:13:16.919Z,77.10
2022-11-30T02:15:56.794Z,77.60
2022-11-30T02:18:32.404Z,86.22
2022-11-30T02:21:10.903Z,86.35
2022-11-30T02:24:07.798Z,84.88
2022-11-30T02:26:59.332Z,95.40
2022-11-30T02:29:31.655Z,95.55
2022-11-30T02:32:11.238Z,108.20
2022-11-30T02:34:43.336Z,98.57
2022-11-30T02:37:14.426Z,94.32
2022-11-30T02:39:43.726Z,91.22
2022-11-30T02:42:13.609Z,95.65
2022-11-30T02:44:45.900Z,98.13
2022-11-30T02:47:21.703Z,98.53
2022-11-30T02:49:56.055Z,111.65
2022-11-30T02:52:27.843Z,93.38
2022-11-30T02:55:01.105Z,95.43
2022-11-30T02:57:29.175Z,95.68
2022-11-30T03:00:00.008Z,95.85
2022-11-30T03:02:28.351Z,91.57
2022-11-30T03:04:56.803Z,90.60
2022-11-30T03:07:24.977Z,88.75
2022-11-30T03:09:53.133Z,91.90
2022-11-30T03:12:21.227Z,96.32
2022-11-30T03:14:49.603Z,102.00
2022-11-30T03:17:19.358Z,101.60
2022-11-30T03:19:47.439Z,96.35
2022-11-30T03:22:15.519Z,96.28
2022-11-30T03:24:43.618Z,103.03
2022-11-30T03:27:12.375Z,89.43
2022-11-30T03:29:40.631Z,90.55
2022-11-30T03:32:08.838Z,83.70
2022-11-30T03:34:38.458Z,88.38
2022-11-30T03:37:06.503Z,85.28
2022-11-30T03:39:34.583Z,86.68
2022-11-30T03:42:02.595Z,87.30
2022-11-30T03:44:30.974Z,89.57
2022-11-30T03:46:59.058Z,92.30
2022-11-30T03:49:27.283Z,83.00
2022-11-30T03:51:56.643Z,87.63
2022-11-30T03:54:25.036Z,92.68
2022-11-30T03:56:53.222Z,89.30
2022-11-30T03:59:21.243Z,81.00
2022-11-30T04:01:49.507Z,94.72
2022-11-30T04:04:17.969Z,92.45
2022-11-30T04:06:46.001Z,88.65
2022-11-30T04:09:15.418Z,89.30
2022-11-30T04:11:43.448Z,90.55
2022-11-30T04:14:11.695Z,87.00
2022-11-30T04:16:39.680Z,89.75
2022-11-30T04:19:07.874Z,84.43
2022-11-30T04:21:35.950Z,79.05
2022-11-30T04:24:04.163Z,78.43
2022-11-30T04:26:33.626Z,76.97
2022-11-30T04:29:04.422Z,73.93
2022-11-30T04:31:32.938Z,73.35
2022-11-30T04:34:01.065Z,76.70
2022-11-30T04:36:29.107Z,76.00
2022-11-30T04:38:57.240Z,73.82
2022-11-30T04:41:25.347Z,84.68
2022-11-30T04:43:54.754Z,79.97
2022-11-30T04:46:22.963Z,83.72
2022-11-30T04:48:51.458Z,85.35
2022-11-30T04:51:19.585Z,88.53
2022-11-30T04:53:47.749Z,85.40
2022-11-30T04:56:15.915Z,76.45
2022-11-30T04:58:43.948Z,82.40
2022-11-30T05:01:13.358Z,87.15
2022-11-30T05:03:41.807Z,85.95
2022-11-30T05:06:09.937Z,86.70
2022-11-30T05:08:37.949Z,85.05
2022-11-30T05:11:06.322Z,89.63
2022-11-30T05:13:34.490Z,94.65
2022-11-30T05:16:02.611Z,89.15
2022-11-30T05:18:33.487Z,81.07
2022-11-30T05:21:01.555Z,86.22
2022-11-30T05:23:30.029Z,89.45
2022-11-30T05:25:58.050Z,82.88
2022-11-30T05:28:26.092Z,93.65
2022-11-30T05:30:54.135Z,90.03
2022-11-30T05:33:22.145Z,83.63
2022-11-30T05:35:51.620Z,96.10
2022-11-30T05:38:19.641Z,92.70
2022-11-30T05:40:48.067Z,94.53
2022-11-30T05:43:16.053Z,84.05
2022-11-30T05:45:44.141Z,84.85
2022-11-30T05:48:12.300Z,85.43
2022-11-30T05:50:40.355Z,90.85
2022-11-30T05:53:10.163Z,82.18
2022-11-30T05:55:38.266Z,81.35
2022-11-30T05:58:06.573Z,78.07
2022-11-30T06:00:35.198Z,81.57
2022-11-30T06:03:03.864Z,68.45
2022-11-30T06:05:35.760Z,62.47
2022-11-30T06:08:04.344Z,66.68
2022-11-30T06:10:33.717Z,55.95
2022-11-30T06:13:07.895Z,55.08
2022-11-30T06:15:37.269Z,44.00
2022-11-30T06:18:06.512Z,42.53
2022-11-30T06:20:35.247Z,41.15
2022-11-30T06:23:03.576Z,37.35
2022-11-30T06:25:33.636Z,32.25
2022-11-30T06:28:01.753Z,34.45
2022-11-30T06:30:29.752Z,34.20
2022-11-30T06:32:58.140Z,36.63
2022-11-30T06:35:26.460Z,39.95
2022-11-30T06:37:54.755Z,36.05
2022-11-30T06:40:23.017Z,40.50
2022-11-30T06:42:52.474Z,45.88
2022-11-30T06:45:21.171Z,41.35
2022-11-30T06:47:49.251Z,46.33
2022-11-30T06:50:17.608Z,40.65
2022-11-30T06:52:45.623Z,40.85
2022-11-30T06:55:13.735Z,44.20
2022-11-30T06:57:41.780Z,40.38
2022-11-30T07:00:13.105Z,41.38
2022-11-30T07:02:41.211Z,42.13
2022-11-30T07:05:09.619Z,36.42
2022-11-30T07:07:39.039Z,40.88
2022-11-30T07:10:09.997Z,38.10
2022-11-30T07:12:38.056Z,40.72
2022-11-30T07:15:09.067Z,49.38
2022-11-30T07:17:40.206Z,44.30
2022-11-30T07:20:09.418Z,45.47
2022-11-30T07:22:37.427Z,40.83
2022-11-30T07:25:23.699Z,40.13
2022-11-30T07:27:51.858Z,41.92
2022-11-30T07:30:22.034Z,38.65
2022-11-30T07:32:51.429Z,43.90
2022-11-30T07:35:19.595Z,36.90
2022-11-30T07:37:49.303Z,36.65
2022-11-30T07:40:17.512Z,30.50
2022-11-30T07:42:45.720Z,30.75
2022-11-30T07:45:13.814Z,34.10
2022-11-30T07:47:41.944Z,33.60
2022-11-30T07:50:12.707Z,37.50
2022-11-30T07:52:41.919Z,32.10
2022-11-30T07:55:10.649Z,35.17
2022-11-30T07:57:40.084Z,34.45
2022-11-30T08:00:12.498Z,33.90
2022-11-30T08:02:42.072Z,30.48
2022-11-30T08:05:12.215Z,26.55
2022-11-30T08:07:42.060Z,29.20
2022-11-30T08:10:11.282Z,31.35
2022-11-30T08:12:39.394Z,28.98
2022-11-30T08:15:19.925Z,31.20
2022-11-30T08:17:54.380Z,33.72
2022-11-30T08:20:27.107Z,32.38
2022-11-30T08:22:55.356Z,33.30
2022-11-30T08:25:23.394Z,35.42
2022-11-30T08:27:51.523Z,35.20
2022-11-30T08:30:21.154Z,35.00
2022-11-30T08:32:49.429Z,33.30
2022-11-30T08:35:17.906Z,34.42
2022-11-30T08:37:47.302Z,35.72
2022-11-30T08:40:15.666Z,37.03
2022-11-30T08:42:43.708Z,42.80
2022-11-30T08:45:12.559Z,37.78
2022-11-30T08:47:40.627Z,36.47
2022-11-30T08:50:09.746Z,36.38
2022-11-30T08:52:37.840Z,32.90
2022-11-30T08:55:08.421Z,31.05
2022-11-30T08:57:37.990Z,34.58
2022-11-30T09:00:07.668Z,35.97
2022-11-30T09:02:38.255Z,31.77
2022-11-30T09:05:07.297Z,38.50
2022-11-30T09:07:37.236Z,37.42
2022-11-30T09:10:07.826Z,34.60
2022-11-30T09:12:36.959Z,33.33
2022-11-30T09:15:05.821Z,33.88
2022-11-30T09:17:34.272Z,30.15
2022-11-30T09:20:03.072Z,30.73
2022-11-30T09:22:31.172Z,31.08
2022-11-30T09:24:59.534Z,32.00
2022-11-30T09:27:30.578Z,31.23
2022-11-30T09:30:00.378Z,28.80
2022-11-30T09:32:29.728Z,27.90
2022-11-30T09:34:57.748Z,29.73
2022-11-30T09:37:27.207Z,28.15
2022-11-30T09:39:55.219Z,26.35
2022-11-30T09:42:41.460Z,28.80
2022-11-30T09:45:18.028Z,26.95
2022-11-30T09:48:06.676Z,29.83
2022-11-30T09:50:40.495Z,23.90
2022-11-30T09:53:16.484Z,25.77
2022-11-30T09:55:45.448Z,27.20
2022-11-30T09:58:24.397Z,26.00
2022-11-30T10:00:52.729Z,27.40
2022-11-30T10:03:24.631Z,30.67
2022-11-30T10:05:59.785Z,29.35
2022-11-30T10:08:39.277Z,28.20
2022-11-30T10:11:28.611Z,23.90
2022-11-30T10:14:10.507Z,20.10
2022-11-30T10:16:49.972Z,21.58
2022-11-30T10:19:31.119Z,21.25
2022-11-30T10:22:10.363Z,24.98
2022-11-30T10:24:57.978Z,27.25
2022-11-30T10:27:38.913Z,25.13
2022-11-30T10:30:15.350Z,22.08
2022-11-30T10:32:46.233Z,20.90
2022-11-30T10:35:23.022Z,19.60
2022-11-30T10:37:52.341Z,23.00
2022-11-30T10:40:26.336Z,27.42
2022-11-30T10:43:05.789Z,27.75
2022-11-30T10:45:39.375Z,27.65
2022-11-30T10:48:16.787Z,30.17
2022-11-30T10:50:46.295Z,28.67
2022-11-30T10:53:16.273Z,30.73
2022-11-30T10:55:53.886Z,24.90
2022-11-30T10:58:27.014Z,26.38
2022-11-30T11:01:03.573Z,29.25
2022-11-30T11:03:34.308Z,28.17
2022-11-30T11:06:12.244Z,25.85
2022-11-30T11:08:42.272Z,26.75
2022-11-30T11:11:31.246Z,25.63
2022-11-30T11:14:19.723Z,26.63
2022-11-30T11:16:57.829Z,25.63
2022-11-30T11:19:40.250Z,25.35
2022-11-30T11:22:17.686Z,28.75
2022-11-30T11:24:46.472Z,27.65
2022-11-30T11:27:23.991Z,25.60
2022-11-30T11:30:02.364Z,25.75
2022-11-30T11:32:32.360Z,29.02
2022-11-30T11:35:00.588Z,26.75
2022-11-30T11:37:31.105Z,24.15
2022-11-30T11:40:15.456Z,25.42
2022-11-30T11:42:47.686Z,20.70
2022-11-30T11:45:18.643Z,20.45
2022-11-30T11:47:49.272Z,22.33
2022-11-30T11:50:58.174Z,22.67
2022-11-30T11:53:24.922Z,26.13
2022-11-30T11:55:58.283Z,32.80
2022-11-30T11:58:36.557Z,28.90
2022-11-30T12:01:38.030Z,24.70
2022-11-30T12:04:09.110Z,23.83
2022-11-30T12:06:37.885Z,26.52
2022-11-30T12:09:13.864Z,23.70
2022-11-30T12:11:45.226Z,27.10
2022-11-30T12:14:16.389Z,23.55
2022-11-30T12:17:06.444Z,25.85
2022-11-30T12:19:46.708Z,24.25
2022-11-30T12:22:30.797Z,29.55
2022-11-30T12:25:16.520Z,24.60
2022-11-30T12:27:54.275Z,24.70
2022-11-30T12:30:26.237Z,25.30
2022-11-30T12:33:10.399Z,25.02
2022-11-30T12:36:02.813Z,20.98
2022-11-30T12:38:42.682Z,25.10
2022-11-30T12:41:35.349Z,23.40
2022-11-30T12:44:18.096Z,28.52
2022-11-30T12:46:56.788Z,25.17
2022-11-30T12:49:37.745Z,28.65
2022-11-30T12:52:25.367Z,26.33
2022-11-30T12:55:00.506Z,35.65
2022-11-30T12:57:33.086Z,29.27
2022-11-30T13:00:07.648Z,40.38
2022-11-30T13:03:01.768Z,24.83
2022-11-30T13:05:33.756Z,22.83
2022-11-30T13:08:12.453Z,24.20
2022-11-30T13:10:45.497Z,23.30
2022-11-30T13:13:17.320Z,34.50
2022-11-30T13:15:46.873Z,23.60
2022-11-30T13:18:20.475Z,29.55
2022-11-30T13:20:54.082Z,27.02
2022-11-30T13:23:32.628Z,33.55
2022-11-30T13:26:08.393Z,35.15
2022-11-30T13:28:54.192Z,27.45
2022-11-30T13:31:25.579Z,28.13
2022-11-30T13:33:59.832Z,29.08
2022-11-30T13:36:38.193Z,26.63
2022-11-30T13:39:33.394Z,34.78
2022-11-30T13:42:30.842Z,28.17
2022-11-30T13:45:01.665Z,24.92
2022-11-30T13:47:34.863Z,27.75
2022-11-30T13:50:08.815Z,30.05
2022-11-30T13:53:20.491Z,26.42
2022-11-30T13:55:58.750Z,26.25
2022-11-30T13:58:27.958Z,27.90
2022-11-30T14:01:22.202Z,29.95
2022-11-30T14:04:23.825Z,35.27
2022-11-30T14:06:53.254Z,31.20
2022-11-30T14:09:54.867Z,31.52
2022-11-30T14:12:57.708Z,36.65
2022-11-30T14:15:34.167Z,32.50
2022-11-30T14:18:06.338Z,32.95
2022-11-30T14:20:38.159Z,30.05
2022-11-30T14:23:08.736Z,28.70
2022-11-30T14:25:37.007Z,26.80
2022-11-30T14:28:11.747Z,28.65
2022-11-30T14:30:41.269Z,29.05
2022-11-30T14:33:19.681Z,35.13
2022-11-30T14:35:54.566Z,30.48
2022-11-30T14:38:26.303Z,30.92
2022-11-30T14:40:55.976Z,29.80
2022-11-30T14:43:26.485Z,31.50
2022-11-30T14:46:04.371Z,28.77
2022-11-30T14:48:33.680Z,34.72
2022-11-30T14:51:03.930Z,39.25
2022-11-30T14:53:42.967Z,45.53
2022-11-30T14:56:21.556Z,36.95
2022-11-30T14:58:58.514Z,40.45
2022-11-30T15:01:28.333Z,44.65
2022-11-30T15:04:05.262Z,38.20
2022-11-30T15:06:34.769Z,34.45
2022-11-30T15:09:03.584Z,57.08
2022-11-30T15:11:32.130Z,32.22
2022-11-30T15:14:09.678Z,32.28
2022-11-30T15:16:38.244Z,35.75
2022-11-30T15:19:21.857Z,37.28
2022-11-30T15:21:50.914Z,37.30
2022-11-30T15:24:19.538Z,36.35
2022-11-30T15:26:53.847Z,34.92
2022-11-30T15:29:29.895Z,36.60
2022-11-30T15:31:59.622Z,38.08
2022-11-30T15:34:35.667Z,42.58
2022-11-30T15:37:04.346Z,39.78
2022-11-30T15:39:33.188Z,48.05
2022-11-30T15:42:03.134Z,56.67
2022-11-30T15:44:41.679Z,40.72
2022-11-30T15:47:26.642Z,36.25
2022-11-30T15:52:27.887Z,40.13
2022-11-30T15:54:57.406Z,39.55
2022-11-30T15:57:27.252Z,38.05
2022-11-30T16:00:20.103Z,35.65
2022-11-30T16:02:48.257Z,37.58
2022-11-30T16:05:27.883Z,41.53
2022-11-30T16:07:59.996Z,60.30
2022-11-30T16:10:31.345Z,43.75
2022-11-30T16:12:59.422Z,41.58
2022-11-30T16:15:30.620Z,38.45
2022-11-30T16:18:01.864Z,42.08
